CDB5 weather

Moncton / Salisbury Heliport
Moncton, New Brunswick, Canada

Public forecast

Using degrees Celsius for public forecast. Weather courtesy of forecast.io.

Closest aviation weather report (METAR) to Moncton / Salisbury Heliport

Closest report is Greater Moncton Roméo LeBlanc International Airport, 16.4 nm (30.4 km) ENE. Retrieved 2020/06/02 15:00 UTC (22 minutes ago):

CYQM 021500Z 30010KT 260V330 15SM FEW043 BKN140 BKN230 12/01 A2975 RMK CU1AC4CI1 SLP079

Closest aviation forecast (TAF) to Moncton / Salisbury Heliport

Closest forecast is Greater Moncton Roméo LeBlanc International Airport, 16.4 nm (30.4 km) ENE. Retrieved 2020/06/02 12:33 UTC (3 hours ago):

TAF CYQM 021130Z 0212/0312 29008KT P6SM SCT120 BKN200 FM021400 32010KT P6SM BKN050 BKN120 BECMG 0221/0223 27005KT FM030300 24005KT P6SM SCT050 FM031100 23010KT P6SM BKN030 BKN120 RMK NXT FCST BY 021800Z